Terminal Aerodrome Forecast
Issued by NWS

Home | Current Version | Previous Version | Text Only | Print | Product List | Glossary On
Versions: 1 2 3 4 5 6 7 8 9 10 11 12 13 14 15 16
000
FTPA31 PHFO 231736
TAFHMK
TAF
PHMK 231736Z 2318/2418 04006KT P6SM FEW025 BKN050
     FM232000 05011KT P6SM VCSH SCT025 BKN040
     FM240500 04007KT P6SM VCSH SCT025 BKN040=

USA.gov is the U.S. government's official web portal to all federal, state and local government web resources and services.